createdAt,value
2018-03-18T00:00:36.333Z,85.08
2018-03-18T00:03:04.024Z,85.16
2018-03-18T00:05:31.676Z,85.16
2018-03-18T00:07:59.331Z,85.58
2018-03-18T00:10:26.922Z,85.46
2018-03-18T00:12:54.597Z,84.65
2018-03-18T00:15:22.258Z,83.75
2018-03-18T00:17:49.919Z,84.43
2018-03-18T00:20:17.610Z,85.04
2018-03-18T00:22:45.220Z,85.21
2018-03-18T00:25:12.928Z,84.64
2018-03-18T00:27:40.522Z,84.59
2018-03-18T00:30:08.187Z,83.89
2018-03-18T00:32:36.364Z,83.35
2018-03-18T00:35:04.237Z,83.15
2018-03-18T00:37:31.879Z,84.08
2018-03-18T00:39:59.517Z,84.48
2018-03-18T00:42:27.175Z,84.73
2018-03-18T00:44:54.823Z,83.92
2018-03-18T00:47:22.419Z,83.58
2018-03-18T00:49:50.093Z,83.88
2018-03-18T00:52:17.894Z,84.59
2018-03-18T00:54:45.511Z,84.19
2018-03-18T00:57:13.191Z,83.71
2018-03-18T00:59:41.393Z,82.31
2018-03-18T01:02:09.125Z,81.99
2018-03-18T01:04:36.735Z,83.88
2018-03-18T01:07:04.655Z,83.88
2018-03-18T01:09:32.345Z,82.10
2018-03-18T01:12:00.211Z,83.24
2018-03-18T01:14:28.051Z,83.30
2018-03-18T01:16:55.674Z,83.54
2018-03-18T01:19:24.605Z,83.38
2018-03-18T01:21:52.581Z,83.89
2018-03-18T01:24:20.303Z,84.08
2018-03-18T01:26:48.041Z,84.51
2018-03-18T01:29:15.631Z,84.21
2018-03-18T01:31:43.323Z,82.74
2018-03-18T01:34:10.915Z,83.59
2018-03-18T01:36:38.635Z,82.98
2018-03-18T01:39:06.330Z,83.64
2018-03-18T01:41:33.987Z,84.42
2018-03-18T01:44:01.948Z,83.89
2018-03-18T01:46:29.582Z,83.65
2018-03-18T01:48:57.393Z,84.25
2018-03-18T01:51:25.116Z,83.91
2018-03-18T01:53:53.442Z,84.18
2018-03-18T01:56:21.277Z,82.56
2018-03-18T01:58:49.715Z,82.08
2018-03-18T02:01:17.342Z,83.19
2018-03-18T02:03:45.295Z,83.02
2018-03-18T02:06:13.772Z,82.66
2018-03-18T02:08:41.785Z,82.86
2018-03-18T02:11:09.500Z,83.12
2018-03-18T02:13:37.155Z,83.47
2018-03-18T02:16:04.852Z,83.65
2018-03-18T02:18:32.695Z,81.72
2018-03-18T02:21:00.553Z,82.81
2018-03-18T02:23:28.228Z,82.55
2018-03-18T02:25:56.157Z,83.30
2018-03-18T02:28:24.167Z,83.38
2018-03-18T02:30:52.361Z,83.49
2018-03-18T02:33:20.091Z,83.75
2018-03-18T02:35:47.910Z,83.29
2018-03-18T02:38:16.271Z,83.43
2018-03-18T02:40:44.545Z,82.80
2018-03-18T02:43:12.179Z,82.59
2018-03-18T02:45:39.829Z,83.12
2018-03-18T02:48:07.504Z,83.06
2018-03-18T02:50:35.164Z,83.39
2018-03-18T02:53:03.516Z,83.03
2018-03-18T02:55:31.731Z,83.11
2018-03-18T02:57:59.436Z,82.61
2018-03-18T03:00:27.166Z,81.32
2018-03-18T03:02:55.068Z,83.25
2018-03-18T03:05:23.462Z,83.18
2018-03-18T03:07:51.212Z,83.41
2018-03-18T03:10:18.810Z,82.78
2018-03-18T03:12:46.461Z,83.23
2018-03-18T03:15:14.123Z,82.88
2018-03-18T03:17:41.816Z,83.41
2018-03-18T03:20:09.427Z,83.04
2018-03-18T03:22:37.100Z,82.86
2018-03-18T03:25:04.821Z,82.56
2018-03-18T03:27:33.050Z,83.04
2018-03-18T03:30:00.831Z,83.23
2018-03-18T03:32:28.506Z,83.90
2018-03-18T03:34:56.102Z,83.77
2018-03-18T03:37:23.758Z,83.06
2018-03-18T03:39:51.490Z,83.02
2018-03-18T03:42:19.090Z,82.47
2018-03-18T03:44:46.741Z,82.92
2018-03-18T03:47:14.382Z,81.46
2018-03-18T03:49:42.021Z,82.45
2018-03-18T03:52:09.688Z,81.58
2018-03-18T03:54:37.310Z,83.09
2018-03-18T03:57:04.995Z,83.53
2018-03-18T03:59:32.579Z,83.71
2018-03-18T04:02:00.221Z,83.39
2018-03-18T04:04:27.869Z,82.57
2018-03-18T04:06:55.518Z,82.37
2018-03-18T04:09:23.241Z,82.48
2018-03-18T04:11:50.927Z,82.86
2018-03-18T04:14:18.532Z,83.06
2018-03-18T04:16:46.189Z,83.30
2018-03-18T04:19:13.780Z,83.57
2018-03-18T04:21:41.445Z,83.69
2018-03-18T04:24:09.675Z,83.78
2018-03-18T04:26:37.446Z,83.49
2018-03-18T04:29:05.200Z,83.92
2018-03-18T04:31:33.001Z,82.70
2018-03-18T04:34:00.805Z,82.42
2018-03-18T04:36:29.042Z,82.52
2018-03-18T04:38:56.644Z,82.35
2018-03-18T04:41:24.281Z,82.61
2018-03-18T04:43:51.941Z,82.89
2018-03-18T04:46:19.575Z,82.75
2018-03-18T04:48:47.182Z,82.81
2018-03-18T04:51:14.830Z,81.14
2018-03-18T04:53:42.878Z,81.54
2018-03-18T04:56:10.513Z,81.13
2018-03-18T04:58:38.110Z,81.44
2018-03-18T05:01:05.789Z,82.14
2018-03-18T05:03:33.380Z,81.68
2018-03-18T05:06:01.085Z,81.50
2018-03-18T05:08:28.821Z,81.86
2018-03-18T05:10:56.484Z,81.38
2018-03-18T05:13:24.096Z,81.26
2018-03-18T05:15:51.749Z,81.22
2018-03-18T05:18:19.428Z,81.12
2018-03-18T05:20:47.107Z,81.84
2018-03-18T05:23:14.731Z,82.07
2018-03-18T05:25:42.373Z,81.47
2018-03-18T05:28:09.962Z,82.01
2018-03-18T05:30:37.654Z,81.09
2018-03-18T05:33:05.526Z,81.67
2018-03-18T05:35:33.133Z,80.12
2018-03-18T05:38:00.910Z,80.85
2018-03-18T05:40:28.672Z,81.10
2018-03-18T05:42:56.318Z,80.44
2018-03-18T05:45:24.625Z,81.77
2018-03-18T05:47:52.278Z,81.48
2018-03-18T05:50:20.157Z,81.95
2018-03-18T05:52:47.816Z,80.12
2018-03-18T05:55:15.477Z,80.71
2018-03-18T05:57:43.206Z,81.01
2018-03-18T06:00:10.879Z,81.23
2018-03-18T06:02:38.513Z,81.09
2018-03-18T06:05:06.131Z,81.20
2018-03-18T06:07:33.786Z,81.21
2018-03-18T06:10:01.411Z,80.81
2018-03-18T06:12:29.068Z,80.88
2018-03-18T06:14:56.677Z,80.86
2018-03-18T06:17:24.321Z,79.35
2018-03-18T06:19:52.208Z,78.86
2018-03-18T06:22:19.974Z,78.94
2018-03-18T06:24:47.628Z,78.80
2018-03-18T06:27:15.345Z,77.06
2018-03-18T06:29:43.015Z,77.87
2018-03-18T06:32:10.717Z,75.12
2018-03-18T06:34:38.338Z,74.42
2018-03-18T06:37:06.007Z,74.98
2018-03-18T06:39:33.635Z,73.09
2018-03-18T06:42:01.372Z,72.15
2018-03-18T06:44:29.322Z,69.98
2018-03-18T06:46:57.109Z,70.81
2018-03-18T06:49:25.315Z,72.92
2018-03-18T06:51:53.322Z,72.02
2018-03-18T06:54:20.932Z,71.01
2018-03-18T06:56:48.828Z,70.29
2018-03-18T06:59:16.535Z,70.02
2018-03-18T07:01:44.470Z,68.72
2018-03-18T07:04:12.681Z,68.81
2018-03-18T07:06:40.556Z,68.38
2018-03-18T07:09:08.769Z,67.44
2018-03-18T07:11:36.493Z,68.78
2018-03-18T07:14:04.777Z,70.46
2018-03-18T07:16:32.797Z,68.71
2018-03-18T07:19:00.688Z,70.33
2018-03-18T07:21:28.580Z,69.03
2018-03-18T07:23:56.240Z,68.58
2018-03-18T07:26:24.108Z,67.70
2018-03-18T07:28:52.177Z,68.14
2018-03-18T07:31:19.835Z,67.69
2018-03-18T07:33:47.838Z,68.26
2018-03-18T07:36:15.728Z,68.54
2018-03-18T07:38:43.757Z,67.44
2018-03-18T07:41:11.397Z,68.16
2018-03-18T07:43:39.382Z,67.33
2018-03-18T07:46:07.043Z,64.99
2018-03-18T07:48:34.927Z,65.35
2018-03-18T07:51:02.680Z,64.82
2018-03-18T07:53:30.525Z,65.89
2018-03-18T07:55:58.301Z,67.07
2018-03-18T07:58:26.165Z,62.55
2018-03-18T08:00:54.862Z,61.86
2018-03-18T08:03:22.742Z,64.11
2018-03-18T08:05:52.241Z,62.65
2018-03-18T08:08:20.225Z,62.19
2018-03-18T08:10:48.007Z,62.75
2018-03-18T08:13:15.649Z,61.30
2018-03-18T08:15:43.480Z,59.41
2018-03-18T08:18:11.546Z,56.98
2018-03-18T08:20:39.530Z,58.76
2018-03-18T08:23:08.123Z,57.86
2018-03-18T08:25:36.432Z,59.28
2018-03-18T08:28:04.022Z,57.76
2018-03-18T08:30:31.726Z,61.92
2018-03-18T08:32:59.935Z,62.10
2018-03-18T08:35:27.662Z,60.21
2018-03-18T08:37:55.329Z,60.88
2018-03-18T08:40:23.017Z,57.57
2018-03-18T08:42:50.869Z,56.30
2018-03-18T08:45:18.492Z,57.43
2018-03-18T08:47:46.197Z,56.92
2018-03-18T08:50:13.849Z,56.64
2018-03-18T08:52:41.560Z,56.86
2018-03-18T08:55:09.550Z,55.29
2018-03-18T08:57:37.241Z,54.68
2018-03-18T09:00:05.111Z,55.75
2018-03-18T09:02:33.409Z,55.01
2018-03-18T09:05:02.686Z,57.68
2018-03-18T09:07:30.765Z,54.47
2018-03-18T09:09:58.548Z,53.51
2018-03-18T09:12:26.592Z,54.63
2018-03-18T09:14:54.613Z,56.92
2018-03-18T09:17:22.312Z,55.40
2018-03-18T09:19:49.990Z,58.81
2018-03-18T09:22:17.654Z,57.84
2018-03-18T09:24:45.650Z,55.15
2018-03-18T09:27:13.639Z,57.47
2018-03-18T09:29:41.897Z,57.95
2018-03-18T09:32:10.709Z,55.39
2018-03-18T09:34:39.126Z,54.90
2018-03-18T09:37:07.082Z,54.76
2018-03-18T09:39:35.682Z,54.50
2018-03-18T09:42:03.746Z,57.44
2018-03-18T09:44:32.060Z,55.36
2018-03-18T09:46:59.908Z,55.32
2018-03-18T09:49:27.612Z,53.36
2018-03-18T09:51:55.426Z,54.55
2018-03-18T09:54:23.073Z,50.66
2018-03-18T09:56:51.016Z,51.19
2018-03-18T09:59:18.699Z,51.62
2018-03-18T10:01:46.456Z,50.97
2018-03-18T10:04:14.067Z,52.34
2018-03-18T10:06:41.716Z,52.74
2018-03-18T10:09:09.483Z,52.10
2018-03-18T10:11:37.152Z,52.47
2018-03-18T10:14:04.882Z,52.78
2018-03-18T10:16:33.615Z,51.71
2018-03-18T10:19:01.698Z,52.40
2018-03-18T10:21:29.419Z,52.77
2018-03-18T10:23:57.112Z,52.31
2018-03-18T10:26:24.816Z,52.47
2018-03-18T10:28:52.481Z,51.72
2018-03-18T10:31:20.304Z,53.51
2018-03-18T10:33:48.004Z,53.14
2018-03-18T10:36:15.658Z,50.91
2018-03-18T10:38:43.316Z,53.68
2018-03-18T10:41:11.024Z,50.56
2018-03-18T10:43:38.685Z,52.82
2018-03-18T10:46:06.385Z,53.47
2018-03-18T10:48:34.068Z,53.42
2018-03-18T10:51:01.825Z,53.32
2018-03-18T10:53:29.486Z,52.95
2018-03-18T10:55:57.208Z,53.44
2018-03-18T10:58:24.890Z,53.44
2018-03-18T11:00:53.412Z,52.15
2018-03-18T11:03:23.636Z,53.10
2018-03-18T11:05:51.279Z,51.08
2018-03-18T11:08:18.940Z,50.87
2018-03-18T11:10:46.591Z,51.81
2018-03-18T11:13:14.260Z,51.41
2018-03-18T11:15:41.950Z,50.94
2018-03-18T11:18:10.864Z,52.08
2018-03-18T11:20:38.566Z,51.13
2018-03-18T11:23:06.319Z,50.21
2018-03-18T11:25:33.938Z,51.05
2018-03-18T11:28:01.682Z,50.60
2018-03-18T11:30:29.504Z,50.29
2018-03-18T11:32:57.129Z,51.39
2018-03-18T11:35:24.794Z,51.54
2018-03-18T11:37:52.576Z,52.65
2018-03-18T11:40:20.252Z,52.04
2018-03-18T11:42:48.042Z,51.87
2018-03-18T11:45:15.818Z,51.66
2018-03-18T11:47:43.460Z,51.74
2018-03-18T11:50:11.215Z,51.06
2018-03-18T11:52:38.879Z,50.49
2018-03-18T11:55:06.744Z,50.23
2018-03-18T11:57:34.366Z,50.68
2018-03-18T12:00:02.042Z,50.15
2018-03-18T12:02:29.734Z,49.84
2018-03-18T12:04:57.368Z,50.19
2018-03-18T12:07:25.103Z,49.24
2018-03-18T12:09:52.819Z,48.66
2018-03-18T12:12:20.520Z,47.57
2018-03-18T12:14:49.390Z,48.91
2018-03-18T12:17:17.124Z,51.30
2018-03-18T12:19:44.957Z,52.51
2018-03-18T12:22:12.720Z,51.65
2018-03-18T12:24:40.427Z,51.34
2018-03-18T12:27:08.113Z,51.63
2018-03-18T12:29:36.854Z,50.82
2018-03-18T12:32:04.577Z,51.76
2018-03-18T12:34:32.213Z,50.59
2018-03-18T12:36:59.833Z,50.01
2018-03-18T12:39:48.161Z,51.02
2018-03-18T12:42:27.832Z,50.57
2018-03-18T12:44:55.719Z,51.01
2018-03-18T12:47:23.423Z,53.09
2018-03-18T12:49:51.969Z,51.67
2018-03-18T12:52:19.640Z,50.57
2018-03-18T12:54:47.295Z,52.34
2018-03-18T12:57:15.052Z,51.87
2018-03-18T12:59:42.933Z,52.63
2018-03-18T13:02:10.594Z,48.64
2018-03-18T13:04:38.359Z,49.27
2018-03-18T13:07:05.990Z,47.77
2018-03-18T13:09:33.736Z,49.15
2018-03-18T13:12:02.503Z,48.57
2018-03-18T13:14:30.139Z,49.15
2018-03-18T13:16:57.829Z,50.95
2018-03-18T13:19:25.550Z,52.17
2018-03-18T13:21:53.390Z,52.22
2018-03-18T13:24:21.172Z,50.69
2018-03-18T13:26:48.996Z,52.40
2018-03-18T13:29:16.828Z,52.38
2018-03-18T13:31:44.523Z,53.10
2018-03-18T13:34:12.270Z,53.61
2018-03-18T13:36:40.190Z,51.74
2018-03-18T13:39:08.011Z,52.00
2018-03-18T13:41:35.794Z,52.23
2018-03-18T13:44:03.560Z,53.33
2018-03-18T13:46:31.279Z,53.36
2018-03-18T13:48:58.957Z,53.99
2018-03-18T13:51:26.755Z,52.71
2018-03-18T13:53:54.541Z,52.97
2018-03-18T13:56:22.329Z,54.19
2018-03-18T13:58:50.051Z,53.57
2018-03-18T14:01:17.763Z,52.11
2018-03-18T14:03:45.494Z,52.76
2018-03-18T14:06:14.040Z,54.15
2018-03-18T14:08:41.831Z,54.38
2018-03-18T14:11:09.684Z,53.91
2018-03-18T14:13:38.206Z,53.92
2018-03-18T14:16:05.936Z,55.31
2018-03-18T14:18:33.830Z,54.03
2018-03-18T14:21:01.591Z,54.11
2018-03-18T14:23:29.345Z,57.11
2018-03-18T14:25:57.096Z,57.68
2018-03-18T14:28:24.738Z,58.56
2018-03-18T14:30:52.470Z,58.85
2018-03-18T14:33:20.207Z,57.97
2018-03-18T14:35:47.900Z,59.66
2018-03-18T14:38:15.671Z,59.16
2018-03-18T14:40:43.315Z,59.64
2018-03-18T14:43:11.062Z,60.42
2018-03-18T14:45:39.087Z,61.46
2018-03-18T14:48:06.796Z,61.25
2018-03-18T14:50:34.425Z,60.88
2018-03-18T14:53:02.286Z,60.95
2018-03-18T14:55:30.056Z,60.81
2018-03-18T14:57:57.712Z,62.27
2018-03-18T15:00:25.415Z,62.76
2018-03-18T15:02:53.164Z,62.42
2018-03-18T15:05:20.891Z,62.16
2018-03-18T15:07:48.645Z,62.21
2018-03-18T15:10:16.340Z,62.28
2018-03-18T15:12:44.327Z,62.24
2018-03-18T15:15:12.244Z,63.18
2018-03-18T15:17:40.110Z,62.32
2018-03-18T15:20:07.811Z,61.91
2018-03-18T15:22:35.471Z,62.90
2018-03-18T15:25:03.293Z,63.33
2018-03-18T15:27:31.025Z,62.56
2018-03-18T15:29:58.622Z,63.24
2018-03-18T15:32:26.378Z,63.67
2018-03-18T15:34:54.136Z,63.91
2018-03-18T15:37:21.830Z,64.67
2018-03-18T15:39:49.562Z,64.38
2018-03-18T15:42:17.258Z,64.77
2018-03-18T15:44:44.965Z,64.87
2018-03-18T15:47:12.689Z,64.29
2018-03-18T15:49:40.406Z,64.68
2018-03-18T15:52:08.917Z,65.27
2018-03-18T15:54:37.702Z,64.94
2018-03-18T15:57:06.640Z,64.97
2018-03-18T15:59:34.261Z,66.14
2018-03-18T16:02:01.996Z,64.89
2018-03-18T16:04:29.672Z,64.71
2018-03-18T16:06:58.468Z,65.18
2018-03-18T16:09:26.854Z,65.75
2018-03-18T16:11:55.076Z,65.51
2018-03-18T16:14:22.798Z,65.55
2018-03-18T16:16:50.462Z,66.11
2018-03-18T16:19:18.189Z,66.79
2018-03-18T16:21:45.859Z,66.62
2018-03-18T16:24:14.456Z,65.91
2018-03-18T16:26:42.066Z,66.23
2018-03-18T16:29:21.506Z,66.85
2018-03-18T16:31:49.132Z,66.39
2018-03-18T16:34:16.825Z,65.81
2018-03-18T16:36:44.556Z,65.89
2018-03-18T16:39:12.271Z,66.11
2018-03-18T16:41:40.147Z,65.70
2018-03-18T16:44:07.881Z,66.39
2018-03-18T16:46:35.622Z,66.19
2018-03-18T16:49:03.423Z,66.15
2018-03-18T16:51:31.076Z,66.26
2018-03-18T16:53:58.832Z,66.34
2018-03-18T16:56:26.531Z,66.18
2018-03-18T16:58:55.382Z,66.92
2018-03-18T17:01:23.070Z,66.54
2018-03-18T17:03:50.835Z,67.10
2018-03-18T17:06:19.462Z,66.78
2018-03-18T17:08:47.193Z,66.78
2018-03-18T17:11:14.823Z,67.00
2018-03-18T17:13:42.519Z,66.62
2018-03-18T17:16:10.287Z,66.85
2018-03-18T17:18:38.049Z,66.88
2018-03-18T17:21:05.857Z,66.80
2018-03-18T17:23:33.510Z,67.50
2018-03-18T17:26:01.195Z,68.13
2018-03-18T17:28:28.949Z,66.35
2018-03-18T17:30:56.668Z,67.16
2018-03-18T17:33:24.320Z,66.99
2018-03-18T17:35:52.156Z,68.21
2018-03-18T17:38:20.068Z,68.85
2018-03-18T17:40:50.073Z,68.71
2018-03-18T17:43:17.978Z,68.86
2018-03-18T17:45:58.756Z,68.88
2018-03-18T17:48:39.064Z,66.99
2018-03-18T17:51:19.128Z,67.82
2018-03-18T17:54:01.729Z,67.21
2018-03-18T17:56:37.765Z,68.61
2018-03-18T17:59:07.969Z,68.14
2018-03-18T18:01:38.275Z,68.23
2018-03-18T18:04:06.866Z,68.08
2018-03-18T18:06:35.920Z,68.56
2018-03-18T18:09:05.038Z,67.67
2018-03-18T18:11:35.097Z,67.53
2018-03-18T18:14:05.588Z,67.84
2018-03-18T18:16:34.203Z,68.40
2018-03-18T18:19:03.909Z,68.33
2018-03-18T18:21:31.689Z,68.78
2018-03-18T18:24:01.811Z,68.65
2018-03-18T18:26:29.583Z,67.71
2018-03-18T18:28:57.920Z,68.07
2018-03-18T18:31:25.618Z,68.59
2018-03-18T18:33:53.361Z,68.23
2018-03-18T18:36:21.123Z,68.00
2018-03-18T18:38:48.868Z,67.24
2018-03-18T18:41:16.872Z,67.75
2018-03-18T18:43:44.671Z,66.86
2018-03-18T18:46:12.384Z,68.11
2018-03-18T18:48:40.147Z,68.86
2018-03-18T18:51:09.984Z,69.66
2018-03-18T18:53:38.497Z,69.07
2018-03-18T18:56:06.433Z,69.31
2018-03-18T18:58:34.101Z,69.17
2018-03-18T19:01:01.906Z,69.07
2018-03-18T19:03:29.679Z,68.77
2018-03-18T19:05:57.393Z,68.88
2018-03-18T19:08:25.204Z,70.15
2018-03-18T19:10:52.931Z,69.18
2018-03-18T19:13:21.866Z,69.62
2018-03-18T19:15:49.616Z,68.69
2018-03-18T19:18:17.711Z,69.39
2018-03-18T19:20:45.569Z,70.17
2018-03-18T19:23:15.318Z,70.22
2018-03-18T19:25:43.692Z,70.48
2018-03-18T19:28:13.588Z,69.62
2018-03-18T19:30:41.680Z,69.39
2018-03-18T19:33:10.832Z,70.33
2018-03-18T19:35:40.530Z,70.40
2018-03-18T19:38:09.543Z,70.50
2018-03-18T19:40:38.850Z,69.81
2018-03-18T19:43:07.978Z,69.01
2018-03-18T19:45:36.664Z,69.12
2018-03-18T19:48:04.710Z,69.24
2018-03-18T19:50:34.528Z,69.94
2018-03-18T19:53:02.793Z,69.11
2018-03-18T19:55:31.621Z,69.80
2018-03-18T19:58:00.193Z,70.65
2018-03-18T20:00:28.231Z,70.44
2018-03-18T20:02:58.476Z,70.21
2018-03-18T20:05:26.245Z,69.75
2018-03-18T20:07:54.027Z,69.79
2018-03-18T20:10:24.167Z,70.53
2018-03-18T20:12:52.657Z,70.20
2018-03-18T20:15:20.375Z,70.74
2018-03-18T20:17:48.095Z,70.41
2018-03-18T20:20:16.744Z,69.39
2018-03-18T20:22:44.625Z,70.14
2018-03-18T20:25:12.497Z,69.70
2018-03-18T20:27:40.958Z,70.00
2018-03-18T20:30:08.782Z,69.51
2018-03-18T20:32:37.212Z,69.97
2018-03-18T20:35:05.279Z,70.49
2018-03-18T20:37:32.959Z,70.03
2018-03-18T20:40:01.696Z,70.02
2018-03-18T20:42:31.333Z,69.81
2018-03-18T20:45:00.739Z,70.05
2018-03-18T20:47:28.611Z,70.60
2018-03-18T20:49:56.611Z,70.12
2018-03-18T20:52:25.088Z,71.17
2018-03-18T20:54:53.111Z,70.29
2018-03-18T20:57:22.332Z,71.07
2018-03-18T20:59:51.521Z,71.01
2018-03-18T21:02:19.213Z,70.65
2018-03-18T21:04:47.586Z,70.72
2018-03-18T21:07:15.330Z,70.13
2018-03-18T21:09:42.991Z,70.10
2018-03-18T21:12:10.889Z,70.82
2018-03-18T21:14:38.883Z,70.07
2018-03-18T21:17:06.798Z,70.08
2018-03-18T21:19:34.606Z,70.41
2018-03-18T21:22:02.855Z,69.91
2018-03-18T21:24:30.560Z,70.09
2018-03-18T21:26:58.701Z,70.80
2018-03-18T21:29:28.995Z,71.05
2018-03-18T21:31:56.900Z,70.95
2018-03-18T21:34:37.448Z,70.56
2018-03-18T21:37:05.345Z,70.68
2018-03-18T21:39:33.785Z,69.96
2018-03-18T21:42:02.071Z,69.71
2018-03-18T21:44:29.763Z,70.62
2018-03-18T21:46:57.454Z,70.81
2018-03-18T21:49:25.086Z,70.95
2018-03-18T21:51:52.756Z,70.87
2018-03-18T21:54:20.408Z,71.85
2018-03-18T21:56:48.013Z,71.44
2018-03-18T21:59:15.665Z,72.07
2018-03-18T22:01:43.338Z,72.12
2018-03-18T22:04:10.966Z,71.68
2018-03-18T22:06:38.691Z,71.20
2018-03-18T22:09:06.315Z,71.20
2018-03-18T22:11:34.632Z,71.56
2018-03-18T22:14:02.345Z,71.56
2018-03-18T22:16:30.270Z,70.43
2018-03-18T22:18:58.014Z,71.11
2018-03-18T22:21:25.676Z,71.61
2018-03-18T22:23:53.346Z,71.86
2018-03-18T22:26:21.210Z,72.20
2018-03-18T22:28:48.871Z,72.00
2018-03-18T22:31:16.590Z,71.98
2018-03-18T22:33:44.621Z,71.98
2018-03-18T22:36:12.699Z,70.82
2018-03-18T22:38:40.761Z,71.26
2018-03-18T22:41:08.642Z,71.21
2018-03-18T22:43:36.553Z,71.96
2018-03-18T22:46:04.556Z,71.89
2018-03-18T22:48:32.283Z,71.35
2018-03-18T22:51:00.710Z,70.08
2018-03-18T22:53:28.445Z,70.68
2018-03-18T22:55:56.706Z,71.17
2018-03-18T22:58:24.944Z,71.75
2018-03-18T23:00:52.972Z,71.69
2018-03-18T23:03:20.735Z,70.88
2018-03-18T23:05:48.705Z,71.79
2018-03-18T23:08:16.585Z,71.23
2018-03-18T23:10:44.204Z,71.32
2018-03-18T23:13:12.597Z,71.58
2018-03-18T23:15:40.409Z,70.54
2018-03-18T23:18:08.165Z,71.53
2018-03-18T23:20:35.927Z,72.52
2018-03-18T23:23:03.600Z,72.69
2018-03-18T23:25:32.406Z,72.65
2018-03-18T23:28:00.072Z,73.37
2018-03-18T23:30:28.240Z,72.94
2018-03-18T23:32:56.452Z,72.47
2018-03-18T23:35:24.089Z,72.78
2018-03-18T23:37:51.756Z,72.78
2018-03-18T23:40:19.401Z,73.06
2018-03-18T23:42:47.087Z,72.08
2018-03-18T23:45:14.686Z,71.15
2018-03-18T23:47:42.274Z,72.08
2018-03-18T23:50:10.121Z,71.55
2018-03-18T23:52:39.376Z,72.02
2018-03-18T23:55:07.043Z,73.11
2018-03-18T23:57:34.734Z,74.06
